This is the latest recevied weather packets stored in our database for station/object DH9SB-6. If no packets are shown the sender has not sent any weather packets the latest 10 day(s).
| Time | Temp. | Humidity | Pressure | Rain* | Wind** | Luminosity | Snow |
|---|---|---|---|---|---|---|---|
| 1777991576 | 16.11° C | 80% | - | 0 mm | - | - | - |
| 1777990952 | 16.11° C | 79% | - | 0 mm | - | - | - |
| 1777990376 | 16.67° C | 76% | - | 0 mm | - | - | - |
| 1777989752 | 17.22° C | 73% | - | 0 mm | - | - | - |
| 1777989176 | 17.22° C | 70% | - | 0 mm | - | - | - |
| 1777988552 | 17.78° C | 66% | - | 0 mm | - | - | - |
| 1777987975 | 18.33° C | 62% | - | 0 mm | - | - | - |
| 1777987352 | 18.89° C | 60% | - | 0 mm | - | - | - |
| 1777986776 | 19.44° C | 59% | - | 0 mm | - | - | - |
| 1777986154 | 19.44° C | 57% | - | 0 mm | - | - | - |
| 1777985576 | 19.44° C | 58% | - | 0 mm | - | - | - |
| 1777984952 | 20° C | 57% | - | 0 mm | - | - | - |
| 1777984377 | 20° C | 55% | - | 0 mm | - | - | - |
| 1777983753 | 20.56° C | 54% | - | 0 mm | - | - | - |
| 1777983176 | 20.56° C | 53% | - | 0 mm | - | - | - |
| 1777982553 | 21.67° C | 51% | - | 0 mm | - | - | - |
| 1777981977 | 21.67° C | 51% | - | 0 mm | - | - | - |
| 1777981352 | 21.67° C | 51% | - | 0 mm | - | - | - |
| 1777980776 | 21.67° C | 51% | - | 0 mm | - | - | - |
| 1777980152 | 21.11° C | 52% | - | 0 mm | - | - | - |
| 1777979576 | 21.67° C | 51% | - | 0 mm | - | - | - |
| 1777978952 | 21.67° C | 52% | - | 0 mm | - | - | - |
| 1777978377 | 21.67° C | 51% | - | 0 mm | - | - | - |
| 1777977752 | 22.22° C | 51% | - | 0 mm | - | - | - |
| 1777977177 | 22.22° C | 50% | - | 0 mm | - | - | - |
* Rain latest hour (hover to see other rain measurements)
** Current wind speed in m/s (hover to see current wind gust speed)